createdAt,value
2018-12-13T00:01:52.687Z,85.04
2018-12-13T00:04:21.957Z,85.86
2018-12-13T00:06:51.394Z,85.41
2018-12-13T00:09:21.685Z,85.46
2018-12-13T00:11:51.434Z,86.13
2018-12-13T00:14:21.292Z,85.85
2018-12-13T00:17:04.706Z,85.21
2018-12-13T00:19:33.600Z,85.86
2018-12-13T00:22:03.149Z,85.68
2018-12-13T00:24:31.909Z,85.45
2018-12-13T00:27:01.632Z,85.51
2018-12-13T00:29:30.568Z,85.13
2018-12-13T00:32:07.473Z,85.09
2018-12-13T00:34:36.900Z,85.26
2018-12-13T00:37:07.074Z,85.23
2018-12-13T00:39:36.714Z,85.18
2018-12-13T00:42:05.471Z,84.90
2018-12-13T00:44:34.206Z,85.19
2018-12-13T00:47:03.088Z,84.45
2018-12-13T00:49:31.825Z,84.49
2018-12-13T00:52:01.664Z,84.75
2018-12-13T00:54:30.566Z,84.56
2018-12-13T00:57:00.000Z,84.29
2018-12-13T00:59:29.560Z,84.58
2018-12-13T01:01:59.045Z,84.27
2018-12-13T01:04:28.925Z,84.42
2018-12-13T01:06:58.597Z,84.39
2018-12-13T01:09:28.956Z,83.92
2018-12-13T01:11:57.784Z,84.18
2018-12-13T01:14:27.699Z,84.47
2018-12-13T01:16:56.461Z,84.22
2018-12-13T01:19:27.601Z,84.46
2018-12-13T01:21:57.240Z,84.55
2018-12-13T01:24:27.110Z,84.53
2018-12-13T01:26:56.602Z,84.46
2018-12-13T01:29:25.393Z,84.82
2018-12-13T01:31:54.163Z,85.10
2018-12-13T01:34:29.882Z,85.06
2018-12-13T01:36:59.282Z,84.95
2018-12-13T01:39:29.445Z,84.99
2018-12-13T01:41:58.448Z,85.40
2018-12-13T01:44:29.540Z,84.80
2018-12-13T01:46:58.463Z,85.12
2018-12-13T01:49:27.318Z,84.80
2018-12-13T01:51:56.934Z,85.02
2018-12-13T01:54:26.942Z,84.79
2018-12-13T01:56:55.719Z,85.58
2018-12-13T01:59:25.727Z,85.31
2018-12-13T02:01:55.365Z,85.04
2018-12-13T02:04:25.315Z,85.43
2018-12-13T02:06:58.695Z,85.27
2018-12-13T02:09:26.150Z,85.50
2018-12-13T02:11:54.860Z,84.51
2018-12-13T02:14:23.672Z,84.61
2018-12-13T02:16:53.502Z,84.99
2018-12-13T02:19:22.256Z,84.36
2018-12-13T02:21:51.799Z,84.65
2018-12-13T02:24:20.800Z,84.69
2018-12-13T02:26:49.748Z,84.64
2018-12-13T02:29:18.846Z,84.52
2018-12-13T02:31:47.602Z,84.96
2018-12-13T02:34:17.497Z,84.80
2018-12-13T02:36:46.323Z,84.73
2018-12-13T02:39:15.199Z,84.28
2018-12-13T02:41:43.967Z,84.75
2018-12-13T02:44:13.322Z,84.46
2018-12-13T02:46:42.060Z,84.88
2018-12-13T02:51:46.325Z,83.90
2018-12-13T02:54:15.180Z,84.41
2018-12-13T02:56:43.915Z,84.54
2018-12-13T02:59:13.186Z,84.40
2018-12-13T03:01:43.072Z,84.41
2018-12-13T03:04:12.597Z,84.78
2018-12-13T03:06:41.310Z,84.45
2018-12-13T03:09:10.940Z,84.41
2018-12-13T03:11:39.833Z,84.67
2018-12-13T03:14:09.572Z,84.99
2018-12-13T03:16:38.940Z,85.25
2018-12-13T03:19:07.683Z,84.80
2018-12-13T03:21:36.524Z,84.56
2018-12-13T03:24:05.386Z,84.79
2018-12-13T03:26:34.159Z,84.61
2018-12-13T03:29:03.014Z,84.55
2018-12-13T03:31:31.862Z,84.61
2018-12-13T03:34:01.521Z,84.37
2018-12-13T03:36:30.338Z,84.56
2018-12-13T03:38:59.347Z,85.02
2018-12-13T03:41:28.189Z,84.85
2018-12-13T03:43:57.763Z,85.14
2018-12-13T03:46:26.657Z,84.68
2018-12-13T03:48:55.370Z,85.27
2018-12-13T03:51:24.849Z,85.61
2018-12-13T03:53:53.585Z,84.90
2018-12-13T03:56:22.328Z,85.08
2018-12-13T03:58:51.757Z,85.50
2018-12-13T04:01:21.726Z,85.72
2018-12-13T04:03:51.517Z,84.97
2018-12-13T04:06:20.363Z,85.33
2018-12-13T04:08:49.944Z,85.38
2018-12-13T04:11:25.741Z,85.59
2018-12-13T04:13:54.479Z,85.63
2018-12-13T04:16:24.392Z,84.92
2018-12-13T04:18:53.138Z,85.20
2018-12-13T04:21:21.868Z,85.53
2018-12-13T04:23:50.701Z,85.06
2018-12-13T04:26:19.510Z,85.25
2018-12-13T04:28:48.537Z,86.15
2018-12-13T04:31:17.979Z,85.48
2018-12-13T04:33:47.504Z,85.51
2018-12-13T04:36:16.940Z,85.02
2018-12-13T04:38:45.667Z,85.34
2018-12-13T04:41:14.415Z,85.47
2018-12-13T04:43:43.819Z,84.86
2018-12-13T04:46:12.681Z,85.08
2018-12-13T04:48:41.388Z,85.26
2018-12-13T04:51:12.093Z,85.14
2018-12-13T04:53:40.874Z,84.88
2018-12-13T04:56:10.714Z,85.15
2018-12-13T04:58:39.916Z,84.94
2018-12-13T05:01:09.132Z,84.88
2018-12-13T05:03:38.422Z,84.89
2018-12-13T05:06:08.141Z,85.48
2018-12-13T05:08:37.532Z,84.94
2018-12-13T05:11:06.811Z,85.46
2018-12-13T05:13:35.517Z,84.64
2018-12-13T05:16:06.179Z,85.16
2018-12-13T05:18:35.466Z,85.04
2018-12-13T05:21:05.071Z,84.53
2018-12-13T05:23:34.365Z,84.87
2018-12-13T05:26:03.293Z,84.62
2018-12-13T05:28:32.264Z,84.13
2018-12-13T05:31:01.207Z,84.59
2018-12-13T05:33:30.697Z,84.71
2018-12-13T05:35:59.476Z,84.83
2018-12-13T05:38:28.213Z,84.67
2018-12-13T05:40:56.970Z,84.47
2018-12-13T05:43:28.238Z,84.54
2018-12-13T05:45:56.920Z,84.37
2018-12-13T05:48:25.660Z,84.17
2018-12-13T05:50:54.985Z,84.54
2018-12-13T05:53:23.717Z,84.44
2018-12-13T05:55:53.307Z,83.93
2018-12-13T05:58:22.032Z,84.27
2018-12-13T06:00:51.359Z,83.94
2018-12-13T06:03:20.755Z,83.76
2018-12-13T06:05:51.129Z,83.90
2018-12-13T06:08:20.667Z,83.88
2018-12-13T06:10:49.398Z,84.26
2018-12-13T06:13:18.421Z,83.57
2018-12-13T06:15:50.284Z,84.66
2018-12-13T06:18:19.683Z,83.99
2018-12-13T06:20:48.502Z,84.12
2018-12-13T06:23:17.466Z,83.46
2018-12-13T06:25:46.421Z,83.96
2018-12-13T06:28:16.787Z,83.61
2018-12-13T06:30:48.868Z,83.89
2018-12-13T06:33:24.693Z,83.47
2018-12-13T06:35:49.531Z,83.90
2018-12-13T06:38:18.446Z,83.73
2018-12-13T06:40:48.167Z,83.87
2018-12-13T06:43:17.046Z,84.33
2018-12-13T06:45:46.981Z,84.51
2018-12-13T06:48:16.508Z,84.99
2018-12-13T06:50:46.312Z,84.11
2018-12-13T06:53:16.697Z,83.88
2018-12-13T06:55:46.677Z,83.68
2018-12-13T06:58:16.621Z,84.52
2018-12-13T07:00:46.004Z,84.22
2018-12-13T07:03:15.494Z,84.73
2018-12-13T07:05:45.317Z,84.92
2018-12-13T07:08:14.966Z,84.85
2018-12-13T07:10:45.179Z,84.82
2018-12-13T07:13:14.341Z,85.40
2018-12-13T07:15:44.040Z,85.07
2018-12-13T07:18:13.634Z,85.68
2018-12-13T07:20:43.192Z,85.76
2018-12-13T07:23:12.155Z,85.15
2018-12-13T07:25:41.226Z,85.97
2018-12-13T07:28:10.354Z,85.33
2018-12-13T07:30:39.441Z,85.48
2018-12-13T07:33:09.107Z,85.73
2018-12-13T07:35:38.940Z,86.05
2018-12-13T07:38:14.098Z,85.80
2018-12-13T07:40:39.467Z,85.88
2018-12-13T07:43:08.650Z,86.35
2018-12-13T07:45:38.886Z,85.89
2018-12-13T07:48:07.796Z,85.89
2018-12-13T07:50:37.359Z,86.69
2018-12-13T07:53:07.292Z,86.19
2018-12-13T07:55:37.420Z,86.81
2018-12-13T07:58:06.588Z,86.73
2018-12-13T08:00:36.379Z,87.04
2018-12-13T08:03:06.283Z,86.93
2018-12-13T08:05:40.946Z,86.48
2018-12-13T08:08:10.698Z,86.29
2018-12-13T08:10:39.828Z,86.44
2018-12-13T08:13:09.085Z,86.37
2018-12-13T08:15:38.804Z,86.60
2018-12-13T08:18:08.359Z,86.19
2018-12-13T08:20:37.311Z,85.93
2018-12-13T08:23:06.333Z,86.19
2018-12-13T08:25:35.422Z,85.46
2018-12-13T08:28:04.357Z,85.82
2018-12-13T08:30:33.510Z,85.32
2018-12-13T08:33:02.459Z,86.08
2018-12-13T08:35:32.231Z,85.29
2018-12-13T08:38:01.208Z,85.53
2018-12-13T08:40:30.474Z,85.10
2018-12-13T08:42:59.520Z,84.90
2018-12-13T08:45:29.433Z,84.11
2018-12-13T08:47:59.426Z,84.42
2018-12-13T08:50:28.526Z,84.17
2018-12-13T08:52:58.996Z,84.87
2018-12-13T08:55:29.582Z,84.89
2018-12-13T08:57:58.884Z,84.95
2018-12-13T09:00:28.929Z,84.66
2018-12-13T09:05:42.643Z,84.57
2018-12-13T09:08:11.978Z,84.48
2018-12-13T09:10:40.846Z,83.77
2018-12-13T09:13:10.230Z,83.42
2018-12-13T09:15:39.976Z,83.26
2018-12-13T09:18:09.521Z,83.89
2018-12-13T09:20:38.204Z,82.83
2018-12-13T09:23:07.658Z,83.57
2018-12-13T09:25:36.475Z,82.89
2018-12-13T09:28:05.382Z,83.44
2018-12-13T09:30:34.300Z,83.56
2018-12-13T09:33:03.348Z,83.71
2018-12-13T09:35:33.102Z,83.87
2018-12-13T09:38:02.262Z,83.86
2018-12-13T09:40:31.346Z,83.13
2018-12-13T09:43:00.686Z,83.42
2018-12-13T09:45:30.673Z,83.20
2018-12-13T09:47:59.628Z,83.42
2018-12-13T09:50:28.577Z,83.42
2018-12-13T09:52:58.265Z,83.16
2018-12-13T09:55:27.149Z,83.62
2018-12-13T09:57:55.864Z,83.23
2018-12-13T10:00:25.157Z,82.76
2018-12-13T10:02:54.560Z,82.73
2018-12-13T10:05:23.704Z,82.45
2018-12-13T10:07:52.500Z,82.49
2018-12-13T10:10:22.113Z,81.79
2018-12-13T10:12:50.985Z,81.48
2018-12-13T10:15:20.909Z,81.77
2018-12-13T10:17:50.448Z,82.16
2018-12-13T10:20:19.494Z,81.75
2018-12-13T10:22:48.409Z,81.56
2018-12-13T10:25:17.151Z,82.10
2018-12-13T10:27:46.369Z,82.17
2018-12-13T10:30:15.231Z,82.12
2018-12-13T10:32:44.096Z,81.98
2018-12-13T10:35:13.617Z,81.92
2018-12-13T10:37:42.311Z,81.42
2018-12-13T10:40:11.177Z,81.63
2018-12-13T10:42:40.454Z,81.68
2018-12-13T10:45:10.281Z,81.41
2018-12-13T10:47:39.654Z,81.98
2018-12-13T10:50:08.783Z,81.41
2018-12-13T10:52:38.390Z,81.51
2018-12-13T10:55:07.251Z,81.48
2018-12-13T10:57:36.798Z,81.13
2018-12-13T11:00:09.645Z,80.34
2018-12-13T11:02:55.731Z,80.04
2018-12-13T11:05:25.129Z,81.26
2018-12-13T11:07:53.865Z,80.47
2018-12-13T11:10:25.510Z,80.24
2018-12-13T11:12:54.249Z,80.57
2018-12-13T11:15:23.716Z,80.29
2018-12-13T11:17:53.640Z,80.82
2018-12-13T11:20:22.349Z,81.17
2018-12-13T11:22:51.238Z,81.10
2018-12-13T11:25:19.981Z,80.69
2018-12-13T11:31:18.077Z,80.07
2018-12-13T11:33:47.672Z,79.82
2018-12-13T11:36:16.967Z,80.33
2018-12-13T11:38:45.723Z,79.94
2018-12-13T11:41:14.979Z,80.47
2018-12-13T11:43:44.703Z,80.21
2018-12-13T11:46:13.426Z,80.80
2018-12-13T11:48:42.106Z,80.76
2018-12-13T11:51:11.614Z,80.05
2018-12-13T11:53:40.938Z,79.65
2018-12-13T11:56:09.597Z,79.79
2018-12-13T11:58:38.295Z,79.17
2018-12-13T12:01:07.954Z,78.41
2018-12-13T12:03:37.391Z,77.92
2018-12-13T12:06:06.740Z,78.30
2018-12-13T12:08:36.305Z,77.78
2018-12-13T12:11:05.036Z,77.69
2018-12-13T12:13:33.776Z,78.04
2018-12-13T12:16:03.260Z,78.39
2018-12-13T12:18:33.420Z,78.67
2018-12-13T12:21:02.241Z,78.67
2018-12-13T12:23:31.580Z,78.84
2018-12-13T12:26:02.171Z,79.10
2018-12-13T12:28:31.342Z,79.23
2018-12-13T12:31:00.475Z,79.31
2018-12-13T12:33:30.211Z,79.80
2018-12-13T12:35:59.116Z,79.80
2018-12-13T12:38:28.572Z,80.14
2018-12-13T12:40:57.356Z,80.53
2018-12-13T12:43:27.257Z,81.23
2018-12-13T12:45:56.015Z,80.72
2018-12-13T12:48:26.519Z,80.67
2018-12-13T12:50:56.472Z,80.65
2018-12-13T12:53:25.583Z,80.80
2018-12-13T12:55:54.581Z,80.34
2018-12-13T12:58:23.757Z,81.05
2018-12-13T13:00:53.536Z,81.55
2018-12-13T13:03:23.069Z,81.82
2018-12-13T13:05:52.442Z,81.14
2018-12-13T13:08:21.798Z,81.50
2018-12-13T13:10:50.736Z,81.57
2018-12-13T13:13:19.656Z,81.50
2018-12-13T13:15:49.054Z,81.94
2018-12-13T13:18:18.930Z,82.40
2018-12-13T13:20:50.485Z,81.76
2018-12-13T13:23:19.453Z,81.53
2018-12-13T13:25:48.572Z,81.43
2018-12-13T13:28:17.312Z,81.32
2018-12-13T13:30:46.260Z,81.52
2018-12-13T13:33:16.915Z,81.18
2018-12-13T13:35:46.235Z,80.33
2018-12-13T13:38:14.945Z,80.18
2018-12-13T13:40:43.666Z,80.40
2018-12-13T13:43:12.435Z,80.39
2018-12-13T13:45:42.053Z,81.31
2018-12-13T13:48:10.722Z,80.57
2018-12-13T13:50:39.451Z,80.44
2018-12-13T13:53:08.902Z,80.73
2018-12-13T13:55:37.910Z,80.36
2018-12-13T13:58:06.653Z,80.32
2018-12-13T14:00:35.992Z,80.82
2018-12-13T14:03:05.368Z,81.27
2018-12-13T14:05:42.535Z,81.24
2018-12-13T14:08:12.122Z,80.92
2018-12-13T14:10:40.773Z,81.75
2018-12-13T14:13:09.493Z,81.54
2018-12-13T14:15:39.862Z,81.88
2018-12-13T14:18:09.150Z,82.60
2018-12-13T14:20:38.076Z,82.79
2018-12-13T14:23:07.118Z,83.04
2018-12-13T14:25:36.029Z,82.86
2018-12-13T14:28:05.038Z,83.06
2018-12-13T14:30:34.017Z,82.86
2018-12-13T14:33:04.723Z,83.34
2018-12-13T14:35:34.291Z,82.54
2018-12-13T14:38:04.594Z,82.90
2018-12-13T14:40:33.506Z,82.73
2018-12-13T14:43:03.516Z,83.11
2018-12-13T14:45:33.199Z,83.28
2018-12-13T14:48:03.055Z,82.94
2018-12-13T14:50:32.364Z,82.84
2018-12-13T14:53:04.198Z,83.31
2018-12-13T14:55:33.140Z,82.61
2018-12-13T14:58:02.903Z,82.54
2018-12-13T15:00:32.746Z,82.70
2018-12-13T15:05:53.268Z,83.45
2018-12-13T15:08:23.008Z,83.18
2018-12-13T15:10:51.807Z,82.77
2018-12-13T15:13:20.798Z,82.99
2018-12-13T15:15:50.963Z,83.29
2018-12-13T15:18:20.403Z,83.33
2018-12-13T15:20:49.273Z,83.44
2018-12-13T15:23:18.133Z,82.86
2018-12-13T15:25:48.811Z,82.95
2018-12-13T15:28:17.594Z,82.51
2018-12-13T15:30:47.545Z,82.62
2018-12-13T15:33:16.247Z,82.52
2018-12-13T15:35:45.014Z,82.64
2018-12-13T15:38:13.784Z,82.13
2018-12-13T15:40:42.537Z,81.84
2018-12-13T15:43:11.410Z,81.94
2018-12-13T15:48:18.271Z,81.94
2018-12-13T15:50:49.224Z,81.99
2018-12-13T15:53:18.111Z,81.57
2018-12-13T15:55:47.226Z,81.08
2018-12-13T15:58:16.060Z,81.25
2018-12-13T16:00:45.851Z,81.61
2018-12-13T16:03:15.115Z,80.96
2018-12-13T16:05:44.934Z,81.01
2018-12-13T16:08:14.394Z,81.06
2018-12-13T16:10:43.094Z,80.87
2018-12-13T16:13:11.800Z,80.79
2018-12-13T16:15:41.857Z,81.02
2018-12-13T16:18:11.265Z,81.95
2018-12-13T16:20:40.080Z,81.46
2018-12-13T16:23:08.765Z,82.02
2018-12-13T16:25:38.938Z,82.47
2018-12-13T16:28:08.112Z,82.24
2018-12-13T16:30:37.610Z,82.31
2018-12-13T16:33:07.045Z,82.43
2018-12-13T16:35:35.901Z,82.25
2018-12-13T16:38:04.658Z,82.19
2018-12-13T16:40:33.815Z,82.77
2018-12-13T16:43:02.649Z,82.73
2018-12-13T16:48:17.026Z,82.35
2018-12-13T16:50:47.188Z,82.51
2018-12-13T16:53:16.346Z,82.51
2018-12-13T16:55:45.044Z,82.48
2018-12-13T16:58:19.381Z,82.68
2018-12-13T17:03:44.953Z,82.68
2018-12-13T17:06:15.774Z,83.13
2018-12-13T17:08:45.515Z,83.07
2018-12-13T17:14:05.176Z,82.90
2018-12-13T17:16:34.597Z,82.98
2018-12-13T17:19:03.461Z,83.11
2018-12-13T17:21:32.696Z,82.74
2018-12-13T17:24:01.480Z,82.32
2018-12-13T17:26:30.224Z,82.70
2018-12-13T17:28:59.093Z,82.43
2018-12-13T17:31:28.841Z,82.40
2018-12-13T17:33:57.685Z,82.34
2018-12-13T17:36:26.468Z,82.35
2018-12-13T17:38:55.823Z,82.49
2018-12-13T17:41:24.590Z,82.62
2018-12-13T17:43:53.951Z,82.13
2018-12-13T17:46:23.243Z,82.16
2018-12-13T17:48:52.137Z,81.92
2018-12-13T17:51:21.948Z,82.31
2018-12-13T17:53:50.685Z,82.27
2018-12-13T17:56:20.260Z,82.28
2018-12-13T17:58:49.648Z,83.03
2018-12-13T18:01:18.541Z,82.94
2018-12-13T18:03:48.027Z,82.41
2018-12-13T18:06:17.497Z,82.72
2018-12-13T18:08:47.337Z,82.09
2018-12-13T18:11:16.087Z,82.38
2018-12-13T18:13:44.781Z,82.49
2018-12-13T18:16:14.113Z,82.13
2018-12-13T18:18:43.620Z,82.36
2018-12-13T18:21:12.363Z,82.11
2018-12-13T18:23:41.495Z,81.72
2018-12-13T18:26:10.233Z,81.34
2018-12-13T18:28:39.022Z,82.24
2018-12-13T18:31:07.948Z,81.97
2018-12-13T18:33:36.645Z,81.87
2018-12-13T18:36:06.695Z,81.95
2018-12-13T18:38:35.458Z,82.05
2018-12-13T18:41:04.216Z,82.29
2018-12-13T18:43:34.126Z,82.07
2018-12-13T18:46:03.609Z,82.82
2018-12-13T18:48:32.705Z,82.64
2018-12-13T18:51:02.144Z,83.01
2018-12-13T18:53:30.947Z,82.81
2018-12-13T18:55:59.726Z,82.83
2018-12-13T18:58:28.573Z,82.41
2018-12-13T19:00:57.962Z,82.46
2018-12-13T19:03:27.263Z,82.78
2018-12-13T19:05:56.556Z,83.11
2018-12-13T19:08:26.292Z,82.69
2018-12-13T19:10:55.111Z,82.21
2018-12-13T19:13:23.969Z,82.70
2018-12-13T19:15:53.461Z,83.05
2018-12-13T19:18:22.718Z,82.55
2018-12-13T19:20:51.495Z,82.83
2018-12-13T19:23:20.408Z,82.58
2018-12-13T19:25:49.228Z,82.65
2018-12-13T19:28:18.121Z,82.10
2018-12-13T19:30:47.842Z,82.22
2018-12-13T19:33:17.484Z,82.67
2018-12-13T19:35:46.228Z,82.17
2018-12-13T19:38:14.937Z,82.39
2018-12-13T19:40:48.341Z,82.09
2018-12-13T19:43:14.544Z,82.08
2018-12-13T19:45:44.197Z,82.32
2018-12-13T19:48:12.957Z,81.46
2018-12-13T19:50:43.106Z,81.43
2018-12-13T19:53:12.600Z,81.69
2018-12-13T19:55:41.434Z,81.78
2018-12-13T19:58:10.165Z,82.47
2018-12-13T20:00:39.827Z,81.79
2018-12-13T20:03:09.209Z,81.53
2018-12-13T20:05:38.753Z,82.04
2018-12-13T20:08:08.234Z,81.48
2018-12-13T20:10:37.952Z,81.70
2018-12-13T20:13:07.007Z,81.49
2018-12-13T20:15:36.597Z,81.87
2018-12-13T20:18:05.972Z,82.12
2018-12-13T20:20:34.679Z,81.57
2018-12-13T20:23:03.496Z,81.17
2018-12-13T20:25:33.592Z,81.41
2018-12-13T20:28:02.613Z,81.71
2018-12-13T20:30:32.485Z,81.29
2018-12-13T20:33:01.517Z,81.48
2018-12-13T20:35:30.344Z,81.52
2018-12-13T20:37:59.064Z,81.59
2018-12-13T20:40:27.963Z,81.92
2018-12-13T20:42:56.817Z,81.83
2018-12-13T20:45:26.316Z,81.79
2018-12-13T20:47:55.038Z,81.89
2018-12-13T20:50:24.649Z,82.03
2018-12-13T20:52:54.105Z,82.00
2018-12-13T20:55:22.829Z,82.00
2018-12-13T20:57:51.544Z,82.08
2018-12-13T21:00:21.859Z,82.38
2018-12-13T21:02:51.316Z,83.08
2018-12-13T21:05:21.176Z,82.67
2018-12-13T21:07:52.119Z,82.90
2018-12-13T21:10:21.467Z,82.82
2018-12-13T21:12:51.252Z,83.06
2018-12-13T21:15:21.464Z,83.24
2018-12-13T21:17:50.908Z,83.85
2018-12-13T21:20:20.590Z,83.74
2018-12-13T21:23:52.096Z,83.98
2018-12-13T21:26:20.906Z,83.85
2018-12-13T21:28:50.796Z,83.98
2018-12-13T21:31:22.518Z,84.45
2018-12-13T21:33:51.328Z,83.98
2018-12-13T21:36:20.546Z,84.51
2018-12-13T21:38:49.421Z,84.66
2018-12-13T21:41:18.316Z,84.36
2018-12-13T21:43:48.759Z,84.17
2018-12-13T21:46:18.059Z,84.69
2018-12-13T21:48:46.831Z,84.10
2018-12-13T21:51:16.432Z,84.42
2018-12-13T21:53:53.572Z,83.97
2018-12-13T21:56:22.308Z,84.37
2018-12-13T21:58:51.667Z,84.83
2018-12-13T22:01:20.492Z,84.44
2018-12-13T22:03:49.761Z,84.37
2018-12-13T22:06:20.086Z,84.43
2018-12-13T22:08:49.584Z,83.95
2018-12-13T22:11:20.035Z,84.87
2018-12-13T22:13:49.011Z,84.80
2018-12-13T22:16:18.671Z,84.68
2018-12-13T22:18:49.833Z,84.37
2018-12-13T22:21:18.598Z,84.65
2018-12-13T22:23:47.331Z,84.78
2018-12-13T22:26:16.954Z,84.63
2018-12-13T22:28:45.802Z,84.63
2018-12-13T22:31:14.462Z,85.32
2018-12-13T22:33:43.484Z,84.74
2018-12-13T22:36:12.206Z,84.57
2018-12-13T22:38:41.143Z,85.20
2018-12-13T22:41:09.871Z,85.28
2018-12-13T22:43:39.358Z,84.86
2018-12-13T22:46:08.092Z,85.35
2018-12-13T22:48:37.285Z,84.81
2018-12-13T22:51:07.005Z,84.62
2018-12-13T22:53:36.352Z,84.93
2018-12-13T22:56:05.052Z,84.89
2018-12-13T22:58:35.308Z,84.47
2018-12-13T23:01:04.012Z,84.74
2018-12-13T23:03:33.652Z,84.44
2018-12-13T23:06:03.183Z,84.76
2018-12-13T23:08:32.818Z,84.21
2018-12-13T23:11:01.951Z,83.81
2018-12-13T23:13:31.456Z,84.50
2018-12-13T23:16:01.546Z,84.62
2018-12-13T23:18:31.269Z,84.41
2018-12-13T23:21:00.448Z,84.23
2018-12-13T23:23:30.374Z,84.17
2018-12-13T23:25:59.222Z,83.69
2018-12-13T23:28:58.586Z,84.36
2018-12-13T23:31:27.306Z,84.52
2018-12-13T23:33:56.146Z,84.08
2018-12-13T23:36:24.868Z,83.79
2018-12-13T23:38:53.657Z,84.64
2018-12-13T23:41:22.461Z,83.98
2018-12-13T23:43:55.231Z,84.61
2018-12-13T23:46:23.949Z,83.38
2018-12-13T23:48:52.655Z,84.05
2018-12-13T23:51:22.404Z,83.69
2018-12-13T23:53:51.191Z,83.97
2018-12-13T23:56:20.127Z,83.83
2018-12-13T23:58:49.656Z,84.24
